Data for 07/06/2010

Time Sea-Level Adjusted Pressure Absolute Pressure Temperature Relative Humidity Dew Point   
(mb) (inHg) (mb) (inHg) (C) (F) (%) (C) (F)
00:05 1021 30.15 850 25.1 8.9 48 72 4.2 39.6
00:10 1021 30.15 850 25.1 9.1 48.4 74 4.7 40.5
00:15 1021 30.15 850 25.1 9 48.2 74 4.7 40.4
00:20 1021 30.15 850 25.1 9 48.1 73 4.4 39.9
00:25 1021 30.15 850 25.1 8.9 48 75 4.7 40.4
00:30 1021 30.15 850 25.1 8.7 47.7 76 4.7 40.4
00:35 1021 30.15 850 25.1 8.7 47.6 75 4.4 40
00:40 1021 30.15 850 25.1 8.7 47.7 76 4.6 40.3
00:45 1021 30.15 850 25.1 8.6 47.5 76 4.6 40.4
00:50 1021 30.15 850 25.1 8.5 47.4 77 4.7 40.4
00:55 1021 30.15 850 25.1 8.5 47.2 77 4.7 40.4
01:00 1021 30.15 850 25.1 8.4 47.2 78 4.8 40.6
01:05 1021 30.15 850 25.1 8.4 47.2 78 4.8 40.6
01:10 1021 30.15 850 25.1 8.4 47.1 78 4.9 40.7
01:15 1021 30.15 850 25.1 8.3 46.9 79 4.8 40.7
01:20 1021 30.15 850 25.1 8.3 46.9 78 4.7 40.5
01:25 1021 30.15 850 25.1 8.2 46.8 77 4.5 40.1
01:30 1021 30.15 850 25.1 8.3 46.9 78 4.6 40.3
01:35 1021 30.15 850 25.1 8.4 47.1 77 4.7 40.5
01:40 1021 30.15 850 25.1 8.4 47.1 77 4.7 40.4
01:45 1021 30.15 851 25.13 8.3 46.9 79 4.8 40.6
01:50 1021 30.15 850 25.1 8.2 46.7 78 4.6 40.3
01:55 1021 30.15 851 25.13 8.3 47 76 4.4 40
02:00 1021 30.15 851 25.13 8.5 47.3 76 4.5 40.1
02:05 1021 30.15 851 25.13 8.6 47.4 76 4.7 40.4
02:10 1021 30.15 851 25.13 8.4 47.1 79 5.1 41.1
02:15 1021 30.15 851 25.13 8.1 46.5 80 4.9 40.8
02:20 1021 30.15 851 25.13 8.1 46.5 79 4.7 40.5
02:25 1021 30.15 851 25.13 8.1 46.5 79 4.7 40.4
02:30 1021 30.15 851 25.13 8.1 46.6 80 4.8 40.7
02:35 1021 30.15 851 25.13 8.1 46.5 80 4.9 40.8
02:40 1021 30.15 850 25.1 8 46.4 80 4.8 40.7
02:45 1021 30.15 851 25.13 8 46.3 80 4.7 40.4
02:50 1021 30.15 851 25.13 8 46.4 80 4.7 40.5
02:55 1021 30.15 851 25.13 8 46.4 80 4.7 40.5
03:00 1021 30.15 851 25.13 8 46.3 80 4.8 40.6
03:05 1022 30.18 851 25.13 7.9 46.2 81 4.8 40.6
03:10 1022 30.18 851 25.13 7.9 46.1 80 4.7 40.4
03:15 1022 30.18 851 25.13 8 46.3 80 4.7 40.5
03:20 1022 30.18 851 25.13 8.1 46.6 78 4.6 40.2
03:25 1022 30.18 851 25.13 8.3 46.9 78 4.7 40.4
03:30 1022 30.18 851 25.13 8.4 47.1 78 4.8 40.7
03:35 1022 30.18 851 25.13 8.2 46.8 80 5 40.9
03:40 1022 30.18 851 25.13 8.1 46.5 80 4.8 40.7
03:45 1022 30.18 851 25.13 8.1 46.5 79 4.7 40.5
03:50 1022 30.18 851 25.13 8.1 46.5 78 4.5 40.1
03:55 1022 30.18 851 25.13 8.1 46.6 79 4.7 40.4
04:00 1022 30.18 851 25.13 8.2 46.7 78 4.6 40.4
04:05 1022 30.18 851 25.13 8.1 46.5 79 4.7 40.5
04:10 1022 30.18 851 25.13 8 46.3 81 4.8 40.7
04:15 1022 30.18 851 25.13 7.8 46.1 81 4.8 40.6
04:20 1022 30.18 851 25.13 7.7 45.9 82 4.8 40.6
04:25 1022 30.18 851 25.13 7.6 45.7 82 4.7 40.5
04:30 1022 30.18 851 25.13 7.6 45.7 81 4.6 40.4
04:35 1022 30.18 851 25.13 7.6 45.7 82 4.7 40.4
04:40 1022 30.18 851 25.13 7.6 45.7 82 4.7 40.5
04:45 1022 30.18 851 25.13 7.7 45.8 81 4.6 40.3
04:50 1022 30.18 851 25.13 7.9 46.3 79 4.5 40.2
04:55 1022 30.18 851 25.13 8.1 46.5 78 4.5 40.1
05:00 1022 30.18 851 25.13 8.2 46.7 76 4.3 39.7
05:05 1022 30.18 851 25.13 8.2 46.8 76 4.3 39.8
05:10 1022 30.18 851 25.13 8.2 46.7 77 4.4 39.9
05:15 1022 30.18 851 25.13 8.1 46.5 77 4.4 39.8
05:20 1022 30.18 851 25.13 8.1 46.5 77 4.4 39.8
05:25 1022 30.18 851 25.13 8 46.3 79 4.5 40.1
05:30 1022 30.18 851 25.13 7.8 46 81 4.6 40.3
05:35 1022 30.18 851 25.13 7.6 45.7 80 4.5 40
05:40 1022 30.18 851 25.13 7.6 45.6 81 4.5 40.2
05:45 1022 30.18 851 25.13 7.5 45.4 82 4.6 40.3
05:50 1022 30.18 851 25.13 7.4 45.3 83 4.7 40.5
05:55 1022 30.18 851 25.13 7.4 45.2 83 4.6 40.3
06:00 1022 30.18 852 25.16 7.5 45.4 82 4.6 40.4
06:05 1022 30.18 852 25.16 7.5 45.6 82 4.7 40.4
06:10 1023 30.21 852 25.16 7.5 45.6 82 4.7 40.5
06:15 1023 30.21 852 25.16 7.5 45.5 82 4.7 40.4
06:20 1023 30.21 852 25.16 7.5 45.6 82 4.7 40.5
06:25 1023 30.21 852 25.16 7.5 45.6 82 4.7 40.5
06:30 1023 30.21 852 25.16 7.6 45.6 82 4.7 40.4
06:35 1023 30.21 852 25.16 7.6 45.7 82 4.7 40.5
06:40 1023 30.21 852 25.16 7.7 45.8 82 4.8 40.6
06:45 1023 30.21 852 25.16 7.7 45.9 81 4.7 40.4
06:50 1023 30.21 852 25.16 7.9 46.1 80 4.6 40.2
06:55 1023 30.21 852 25.16 7.9 46.3 79 4.6 40.2
07:00 1023 30.21 852 25.16 8 46.5 79 4.6 40.3
07:05 1023 30.21 852 25.16 8.1 46.7 79 4.7 40.5
07:10 1023 30.21 852 25.16 8.3 46.9 78 4.7 40.5
07:15 1023 30.21 852 25.16 8.4 47 77 4.6 40.3
07:20 1023 30.21 852 25.16 8.5 47.3 77 4.6 40.3
07:25 1023 30.21 852 25.16 8.6 47.4 78 5 41
07:30 1023 30.21 852 25.16 8.6 47.4 78 4.9 40.8
07:35 1023 30.21 852 25.16 8.5 47.2 78 4.8 40.6
07:40 1023 30.21 852 25.16 8.8 47.8 76 4.7 40.5
07:45 1023 30.21 852 25.16 9.2 48.6 74 4.9 40.8
07:50 1023 30.21 852 25.16 9.1 48.4 74 4.7 40.4
07:55 1023 30.21 853 25.19 9.1 48.5 73 4.6 40.4
08:00 1023 30.21 853 25.19 9 48.2 74 4.6 40.4
08:05 1023 30.21 853 25.19 9.1 48.4 74 4.7 40.4
08:10 1023 30.21 853 25.19 9.3 48.8 72 4.5 40.1
08:15 1023 30.21 853 25.19 9.6 49.2 71 4.6 40.4
08:20 1023 30.21 853 25.19 9.6 49.3 72 4.8 40.6
08:25 1024 30.24 853 25.19 9.7 49.5 71 4.8 40.6
08:30 1024 30.24 853 25.19 9.7 49.5 72 4.9 40.8
08:35 1024 30.24 853 25.19 9.8 49.7 71 4.8 40.6
08:40 1024 30.24 853 25.19 9.6 49.4 71 4.7 40.4
08:45 1024 30.24 853 25.19 9.8 49.7 71 4.8 40.6
08:50 1024 30.24 853 25.19 10.1 50.2 69 4.8 40.6
08:55 1024 30.24 853 25.19 10.1 50.1 70 5 41
09:00 1024 30.24 853 25.19 10 50 71 5 40.9
09:05 1024 30.24 853 25.19 10.1 50.1 71 5.1 41.1
09:10 1024 30.24 853 25.19 10.1 50.2 71 5 41
09:15 1024 30.24 853 25.19 10.5 51 70 5.4 41.7
09:20 1024 30.24 853 25.19 10.3 50.5 72 5.4 41.7
09:25 1024 30.24 853 25.19 10.2 50.4 72 5.5 41.9
09:30 1024 30.24 853 25.19 10 50.1 71 4.9 40.9
09:35 1024 30.24 853 25.19 10.5 50.9 70 5.2 41.4
09:40 1024 30.24 853 25.19 10.7 51.3 68 5 41.1
09:45 1024 30.24 853 25.19 10.8 51.5 68 5.3 41.5
09:50 1024 30.24 853 25.19 11.5 52.8 66 5.4 41.8
09:55 1024 30.24 853 25.19 11.8 53.3 66 5.7 42.2
10:00 1024 30.24 853 25.19 11.5 52.7 67 5.5 41.9
10:05 1024 30.24 853 25.19 11.8 53.2 63 4.9 40.9
10:10 1024 30.24 853 25.19 12.9 55.1 63 5.9 42.7
10:15 1024 30.24 853 25.19 11.7 53 65 5.3 41.6
10:20 1024 30.24 853 25.19 11.8 53.3 64 5.3 41.6
10:25 1024 30.24 853 25.19 11.5 52.8 65 5.3 41.6
10:30 1024 30.24 853 25.19 12.2 54 62 5.2 41.3
10:35 1024 30.24 853 25.19 12.6 54.7 63 5.9 42.6
10:40 1024 30.24 853 25.19 12.3 54.1 62 5.2 41.4
10:45 1024 30.24 853 25.19 12 53.7 63 5.3 41.6
10:50 1024 30.24 853 25.19 11.8 53.3 64 5.4 41.6
10:55 1024 30.24 853 25.19 11.4 52.5 66 5.3 41.6
11:00 1024 30.24 853 25.19 11.8 53.2 62 4.8 40.7
11:05 1024 30.24 853 25.19 12.3 54.2 60 4.8 40.7
11:10 1024 30.24 853 25.19 12.6 54.6 57 4.2 39.6
11:15 1024 30.24 853 25.19 12.9 55.3 56 4.5 40.1
11:20 1024 30.24 853 25.19 13.1 55.6 55 4.3 39.8
11:25 1024 30.24 853 25.19 12.8 55 54 3.7 38.7
11:30 1024 30.24 853 25.19 12.9 55.2 52 3.3 37.9
11:35 1024 30.24 853 25.19 13.7 56.6 50 3.4 38.1
11:40 1024 30.24 853 25.19 14.3 57.7 51 4.5 40.1
11:45 1024 30.24 853 25.19 14.2 57.6 52 4.6 40.2
11:50 1024 30.24 853 25.19 13.9 56.9 52 4.1 39.4
11:55 1024 30.24 853 25.19 13.5 56.4 49 3.1 37.7
12:00 1024 30.24 853 25.19 14.1 57.3 49 3.5 38.3
12:05 1024 30.24 853 25.19 14.3 57.7 49 3.7 38.7
12:10 1024 30.24 853 25.19 14.4 57.8 46 3 37.5
12:15 1024 30.24 853 25.19 14.6 58.2 48 3.8 38.8
12:20 1024 30.24 853 25.19 14.6 58.2 47 3.5 38.3
12:25 1024 30.24 853 25.19 15.1 59.2 46 3.7 38.6
12:30 1024 30.24 853 25.19 15.1 59.1 46 3.5 38.3
12:35 1024 30.24 853 25.19 15.3 59.5 46 3.9 39.1
12:40 1024 30.24 853 25.19 14.7 58.4 49 4.2 39.6
12:45 1024 30.24 853 25.19 15.7 60.3 46 4.2 39.6
12:50 1024 30.24 853 25.19 15.2 59.4 45 3.4 38.2
12:55 1024 30.24 853 25.19 14.6 58.3 42 2 35.6
13:00 1024 30.24 853 25.19 14.4 58 44 2.3 36.2
13:05 1024 30.24 853 25.19 14.6 58.3 41 1.8 35.2
13:10 1024 30.24 853 25.19 15.1 59.1 40 1.7 35.1
13:15 1024 30.24 853 25.19 15.7 60.2 43 3.1 37.7
13:20 1024 30.24 853 25.19 15.1 59.1 43 2.8 37
13:25 1024 30.24 853 25.19 15.2 59.3 42 2.6 36.6
13:30 1024 30.24 853 25.19 15.2 59.4 42 2.4 36.4
13:35 1024 30.24 853 25.19 15.2 59.4 44 3 37.4
13:40 1024 30.24 853 25.19 15.9 60.7 38 1.6 34.9
13:45 1024 30.24 853 25.19 17.2 62.9 37 2.5 36.4
13:50 1024 30.24 853 25.19 16.9 62.4 38 2.6 36.7
13:55 1024 30.24 853 25.19 16.7 62.1 37 2.2 36
14:00 1024 30.24 853 25.19 17.5 63.4 37 2.7 36.9
14:05 1024 30.24 853 25.19 17.7 63.8 36 2.6 36.8
14:10 1024 30.24 853 25.19 16.8 62.3 38 2.7 36.8
14:15 1024 30.24 853 25.19 16.8 62.2 36 1.7 35.1
14:20 1024 30.24 853 25.19 17.2 62.9 36 2 35.7
14:25 1024 30.24 853 25.19 17.5 63.6 38 3.3 38
14:30 1024 30.24 853 25.19 17.3 63.1 40 3.5 38.3
14:35 1024 30.24 853 25.19 17.5 63.4 38 3.1 37.6
14:40 1024 30.24 853 25.19 17.1 62.9 40 3.6 38.5
14:45 1024 30.24 853 25.19 16.2 61.2 44 4.2 39.5
14:50 1024 30.24 853 25.19 15.4 59.8 42 2.7 36.9
14:55 1024 30.24 853 25.19 15.2 59.3 43 2.7 36.8
15:00 1024 30.24 853 25.19 15.3 59.5 44 3.1 37.6
15:05 1024 30.24 853 25.19 15.9 60.7 43 3.4 38.1
15:10 1024 30.24 853 25.19 15.5 59.8 44 3.3 37.9
15:15 1024 30.24 853 25.19 16 60.8 41 2.7 36.9
15:20 1024 30.24 853 25.19 16 60.8 41 2.8 37.1
15:25 1024 30.24 853 25.19 16.9 62.4 38 2.7 36.8
15:30 1024 30.24 853 25.19 16.1 60.9 45 4.2 39.5
15:35 1024 30.24 853 25.19 15.7 60.2 44 3.4 38.2
15:40 1024 30.24 853 25.19 15.3 59.6 44 3.3 38
15:45 1024 30.24 853 25.19 15.7 60.2 42 2.8 37
15:50 1024 30.24 853 25.19 16 60.9 43 3.6 38.5
15:55 1024 30.24 853 25.19 15.7 60.3 44 3.7 38.7
16:00 1024 30.24 853 25.19 15.1 59.2 47 3.9 39
16:05 1024 30.24 853 25.19 15.2 59.4 46 3.8 38.8
16:10 1024 30.24 853 25.19 16 60.7 42 3.3 37.9
16:15 1024 30.24 853 25.19 16.6 61.8 42 3.7 38.7
16:20 1024 30.24 853 25.19 16.4 61.5 40 3 37.3
16:25 1024 30.24 853 25.19 17.3 63.1 39 3.2 37.7
16:30 1024 30.24 853 25.19 16.8 62.3 40 3.3 37.9
16:35 1024 30.24 853 25.19 16.8 62.2 38 2.4 36.3
16:40 1024 30.24 853 25.19 17.1 62.8 36 2 35.5
16:45 1024 30.24 853 25.19 17.7 63.9 34 2 35.6
16:50 1024 30.24 853 25.19 18 64.4 33 1.5 34.8
16:55 1024 30.24 853 25.19 18.4 65.1 34 2.6 36.6
17:00 1024 30.24 853 25.19 17.3 63.2 37 2.5 36.5
17:05 1024 30.24 853 25.19 17.3 63.2 36 2.1 35.8
17:10 1024 30.24 853 25.19 17.8 64.1 33 1.6 34.8
17:15 1024 30.24 853 25.19 18.3 65 34 2.5 36.5
17:20 1024 30.24 853 25.19 18.2 64.8 33 2 35.6
17:25 1024 30.24 853 25.19 17.9 64.3 34 1.9 35.5
17:30 1024 30.24 853 25.19 17.9 64.2 35 2.3 36.1
17:35 1024 30.24 853 25.19 17.5 63.5 37 2.6 36.7
17:40 1024 30.24 853 25.19 16.8 62.2 39 2.8 37
17:45 1024 30.24 853 25.19 17.2 63 38 2.8 37
17:50 1024 30.24 853 25.19 17.3 63.2 35 2 35.6
17:55 1024 30.24 853 25.19 17.4 63.4 34 1.7 35
18:00 1024 30.24 853 25.19 17.1 62.7 37 2.5 36.4
18:05 1024 30.24 853 25.19 16.5 61.8 39 2.5 36.5
18:10 1024 30.24 853 25.19 15.9 60.7 40 2.4 36.3
18:15 1024 30.24 853 25.19 16 60.8 39 2.2 36
18:20 1024 30.24 853 25.19 15.5 59.9 40 2 35.5
18:25 1024 30.24 853 25.19 15.4 59.6 40 2.1 35.7
18:30 1024 30.24 853 25.19 15.5 59.8 43 3 37.4
18:35 1024 30.24 853 25.19 15.6 60 42 2.6 36.8
18:40 1024 30.24 853 25.19 15.7 60.2 41 2.6 36.7
18:45 1024 30.24 853 25.19 16.4 61.5 39 2.5 36.4
18:50 1024 30.24 853 25.19 16.9 62.3 38 2.7 36.8
18:55 1024 30.24 853 25.19 16.7 62 40 3.1 37.5
19:00 1024 30.24 853 25.19 16.8 62.2 38 2.5 36.4
19:05 1024 30.24 853 25.19 16.8 62.3 37 2.3 36.1
19:10 1024 30.24 853 25.19 16.1 61 42 3.2 37.8
19:15 1024 30.24 853 25.19 15.2 59.4 44 3.1 37.6
19:20 1024 30.24 853 25.19 15.2 59.4 45 3.6 38.4
19:25 1024 30.24 853 25.19 15.2 59.4 45 3.6 38.4
19:30 1024 30.24 853 25.19 15.3 59.5 43 2.7 36.9
19:35 1024 30.24 853 25.19 15.5 59.9 44 3.3 37.9
19:40 1024 30.24 853 25.19 15.6 60 41 2.5 36.5
19:45 1024 30.24 853 25.19 15.2 59.4 42 2.5 36.6
19:50 1024 30.24 853 25.19 15.1 59.1 43 2.7 36.9
19:55 1024 30.24 853 25.19 15.1 59.2 43 2.6 36.6
20:00 1024 30.24 853 25.19 15.1 59.2 42 2.5 36.5
20:05 1024 30.24 853 25.19 15.2 59.4 42 2.6 36.7
20:10 1024 30.24 853 25.19 15.1 59.1 43 2.6 36.7
20:15 1024 30.24 853 25.19 14.9 58.8 42 2.2 36
20:20 1024 30.24 853 25.19 14.9 58.9 41 2 35.6
20:25 1024 30.24 853 25.19 14.8 58.7 42 2 35.7
20:30 1024 30.24 853 25.19 14.8 58.7 42 2 35.6
20:35 1024 30.24 853 25.19 14.7 58.5 42 2.1 35.8
20:40 1024 30.24 853 25.19 14.6 58.3 44 2.6 36.7
20:45 1024 30.24 853 25.19 14.5 58.2 44 2.5 36.6
20:50 1024 30.24 853 25.19 14.6 58.2 44 2.6 36.7
20:55 1024 30.24 853 25.19 14.5 58.2 44 2.6 36.6
21:00 1024 30.24 853 25.19 14.4 57.8 45 2.8 37
21:05 1024 30.24 853 25.19 14.2 57.5 46 2.8 37
21:10 1024 30.24 853 25.19 14 57.2 47 3 37.4
21:15 1024 30.24 853 25.19 13.6 56.4 53 4.3 39.8
21:20 1024 30.24 853 25.19 13.2 55.8 54 4.1 39.4
21:25 1024 30.24 853 25.19 13 55.5 55 4.3 39.7
21:30 1024 30.24 853 25.19 12.8 55.1 57 4.5 40.1
21:35 1024 30.24 853 25.19 12.4 54.3 61 5 41.1
21:40 1024 30.24 854 25.22 12 53.6 63 5.1 41.3
21:45 1024 30.24 854 25.22 11.8 53.2 64 5.3 41.5
21:50 1024 30.24 854 25.22 11.8 53.2 64 5.2 41.3
21:55 1024 30.24 854 25.22 11.7 53.1 65 5.4 41.7
22:00 1024 30.24 854 25.22 11.2 52.2 68 5.6 42
22:05 1024 30.24 854 25.22 10.8 51.4 70 5.6 42
22:10 1024 30.24 854 25.22 10.5 50.8 71 5.4 41.7
22:15 1025 30.27 854 25.22 10.2 50.4 66 4.2 39.6
22:20 1025 30.27 854 25.22 10.1 50.3 66 4.1 39.4
22:25 1025 30.27 854 25.22 9.9 49.9 66 3.9 39
22:30 1025 30.27 854 25.22 9.8 49.6 66 3.8 38.9
22:35 1025 30.27 854 25.22 9.6 49.3 67 3.7 38.7
22:40 1025 30.27 854 25.22 9.6 49.4 66 3.6 38.6
22:45 1025 30.27 854 25.22 9.6 49.3 67 3.8 38.8
22:50 1025 30.27 854 25.22 9.4 49 68 3.8 38.9
22:55 1025 30.27 854 25.22 9.4 48.8 69 3.9 39
23:00 1025 30.27 854 25.22 9.3 48.8 69 4 39.1
23:05 1025 30.27 854 25.22 9.2 48.6 70 4 39.2
23:10 1025 30.27 854 25.22 9.2 48.5 70 4.1 39.3
23:15 1025 30.27 854 25.22 9.2 48.6 71 4.2 39.6
23:20 1025 30.27 854 25.22 9 48.2 72 4.2 39.6
23:25 1025 30.27 854 25.22 8.8 47.9 73 4.2 39.6
23:30 1025 30.27 854 25.22 8.7 47.6 74 4.3 39.7
23:35 1024 30.24 854 25.22 8.6 47.5 73 4.1 39.3
23:40 1024 30.24 854 25.22 8.6 47.4 73 4 39.3
23:45 1024 30.24 854 25.22 8.4 47.2 73 3.9 39.1
23:50 1024 30.24 854 25.22 8.4 47.1 74 4.1 39.4
23:55 1025 30.27 854 25.22 8.3 47 75 4.1 39.4
24:00 1024 30.24 854 25.22 8.2 46.8 75 4.2 39.5